Aviation Digital Data Service (ADDS)

Output produced by METARs form (2131 UTC 24 May 2017)
found at http://aviationweather.gov/adds/metars/
 
KBDL 242126Z 2421/2524 05005KT P6SM BKN150 
     FM250800 04004KT P6SM BKN100 
     FM251000 05008KT P6SM VCSH OVC050 
     FM251300 04011KT P6SM -SHRA OVC015 
     FM251900 06009KT 5SM -SHRA BR OVC008